Terminal Aerodrome Forecast
Issued by NWS Binghamton, NY

Home | Current Version | Previous Version | Text Only | Print | Product List | Glossary On
Versions: 1 2 3 4 5 6 7 8 9 10 11 12 13 14 15 16 17 18 19 20
000
FTUS41 KBGM 021300 AAA
TAFBGM
TAF AMD
KBGM 021347Z 0214/0312 13005KT P6SM BKN040
      TEMPO 0214/0216 OVC008
     FM030000 15010KT P6SM SCT040 BKN200=

USA.gov is the U.S. government's official web portal to all federal, state and local government web resources and services.